createdAt,value
2018-05-12T00:01:10.904Z,13.77
2018-05-12T00:03:38.407Z,13.73
2018-05-12T00:06:05.874Z,13.74
2018-05-12T00:08:33.369Z,13.72
2018-05-12T00:11:00.853Z,13.69
2018-05-12T00:13:28.332Z,13.67
2018-05-12T00:15:55.796Z,13.65
2018-05-12T00:18:23.281Z,13.62
2018-05-12T00:20:50.753Z,13.59
2018-05-12T00:23:18.226Z,13.54
2018-05-12T00:25:45.742Z,13.51
2018-05-12T00:28:13.210Z,13.49
2018-05-12T00:30:40.702Z,13.45
2018-05-12T00:33:08.190Z,13.42
2018-05-12T00:35:35.672Z,13.41
2018-05-12T00:38:03.143Z,13.42
2018-05-12T00:40:30.637Z,13.45
2018-05-12T00:42:58.210Z,13.47
2018-05-12T00:45:25.629Z,13.47
2018-05-12T00:47:53.096Z,13.48
2018-05-12T00:50:20.570Z,13.46
2018-05-12T00:52:48.058Z,13.46
2018-05-12T00:55:15.552Z,13.40
2018-05-12T00:57:43.050Z,13.34
2018-05-12T01:00:10.525Z,13.33
2018-05-12T01:02:38.016Z,13.28
2018-05-12T01:05:05.488Z,13.23
2018-05-12T01:07:33.001Z,13.19
2018-05-12T01:10:00.472Z,13.19
2018-05-12T01:12:27.946Z,13.16
2018-05-12T01:14:55.452Z,13.16
2018-05-12T01:17:22.941Z,13.12
2018-05-12T01:19:50.416Z,13.06
2018-05-12T01:22:17.892Z,12.99
2018-05-12T01:24:45.392Z,12.94
2018-05-12T01:27:12.869Z,12.89
2018-05-12T01:29:40.362Z,12.86
2018-05-12T01:32:07.852Z,12.87
2018-05-12T01:34:35.331Z,12.85
2018-05-12T01:37:02.811Z,12.82
2018-05-12T01:39:30.275Z,12.76
2018-05-12T01:41:57.748Z,12.72
2018-05-12T01:44:25.216Z,12.66
2018-05-12T01:46:52.688Z,12.60
2018-05-12T01:49:20.158Z,12.60
2018-05-12T01:51:47.661Z,12.60
2018-05-12T01:54:15.130Z,12.63
2018-05-12T01:56:42.623Z,12.66
2018-05-12T01:59:10.122Z,12.62
2018-05-12T02:01:37.585Z,12.58
2018-05-12T02:04:05.078Z,12.50
2018-05-12T02:06:32.558Z,12.34
2018-05-12T02:09:00.057Z,12.26
2018-05-12T02:11:27.544Z,12.27
2018-05-12T02:13:55.016Z,12.32
2018-05-12T02:16:22.520Z,12.35
2018-05-12T02:18:49.988Z,12.37
2018-05-12T02:21:17.483Z,12.31
2018-05-12T02:23:44.945Z,12.22
2018-05-12T02:26:12.430Z,12.12
2018-05-12T02:28:39.894Z,12.07
2018-05-12T02:31:07.377Z,12.06
2018-05-12T02:33:34.848Z,12.06
2018-05-12T02:36:02.350Z,12.04
2018-05-12T02:38:29.814Z,12.05
2018-05-12T02:40:57.291Z,12.06
2018-05-12T02:43:24.781Z,12.05
2018-05-12T02:45:52.258Z,12.06
2018-05-12T02:48:19.745Z,12.06
2018-05-12T02:50:47.212Z,12.05
2018-05-12T02:53:14.712Z,12.04
2018-05-12T02:55:42.185Z,12.07
2018-05-12T02:58:09.683Z,12.04
2018-05-12T03:00:37.145Z,11.99
2018-05-12T03:03:04.652Z,11.95
2018-05-12T03:05:32.138Z,11.94
2018-05-12T03:07:59.601Z,11.90
2018-05-12T03:10:27.106Z,11.90
2018-05-12T03:12:54.568Z,11.93
2018-05-12T03:15:22.061Z,11.93
2018-05-12T03:17:49.538Z,11.93
2018-05-12T03:20:17.019Z,11.93
2018-05-12T03:22:44.481Z,11.95
2018-05-12T03:25:11.967Z,11.96
2018-05-12T03:27:39.460Z,11.96
2018-05-12T03:30:06.937Z,11.95
2018-05-12T03:32:34.413Z,11.99
2018-05-12T03:35:01.890Z,12.01
2018-05-12T03:37:29.397Z,12.02
2018-05-12T03:39:56.902Z,11.95
2018-05-12T03:42:24.373Z,11.93
2018-05-12T03:44:51.865Z,11.90
2018-05-12T03:47:19.350Z,11.90
2018-05-12T03:49:46.845Z,11.93
2018-05-12T03:52:14.341Z,11.94
2018-05-12T03:54:41.821Z,11.91
2018-05-12T03:57:09.291Z,11.96
2018-05-12T03:59:36.822Z,12.03
2018-05-12T04:02:04.297Z,11.99
2018-05-12T04:04:43.610Z,11.93
2018-05-12T04:07:22.758Z,11.89
2018-05-12T04:10:02.093Z,11.88
2018-05-12T04:12:44.423Z,11.94
2018-05-12T04:15:11.917Z,12.06
2018-05-12T04:17:39.419Z,11.99
2018-05-12T04:20:06.951Z,11.89
2018-05-12T04:22:34.426Z,11.90
2018-05-12T04:25:02.055Z,11.93
2018-05-12T04:27:29.554Z,11.94
2018-05-12T04:29:57.025Z,11.97
2018-05-12T04:32:24.524Z,11.96
2018-05-12T04:34:51.981Z,11.91
2018-05-12T04:37:19.461Z,11.83
2018-05-12T04:39:46.996Z,11.90
2018-05-12T04:42:14.528Z,11.98
2018-05-12T04:44:42.007Z,12.00
2018-05-12T04:47:09.474Z,12.08
2018-05-12T04:49:36.963Z,12.05
2018-05-12T04:52:04.429Z,12.11
2018-05-12T04:54:32.657Z,12.20
2018-05-12T04:57:00.133Z,12.22
2018-05-12T04:59:27.629Z,12.34
2018-05-12T05:01:55.109Z,12.48
2018-05-12T05:04:22.592Z,12.64
2018-05-12T05:06:50.074Z,12.73
2018-05-12T05:09:17.552Z,12.80
2018-05-12T05:11:45.035Z,12.96
2018-05-12T05:14:12.503Z,13.09
2018-05-12T05:16:39.993Z,13.25
2018-05-12T05:19:07.500Z,13.37
2018-05-12T05:21:35.001Z,13.53
2018-05-12T05:24:02.473Z,13.70
2018-05-12T05:26:29.985Z,13.74
2018-05-12T05:28:57.461Z,13.79
2018-05-12T05:31:24.929Z,13.94
2018-05-12T05:33:52.416Z,14.04
2018-05-12T05:36:19.907Z,14.12
2018-05-12T05:38:47.401Z,14.21
2018-05-12T05:41:14.870Z,14.30
2018-05-12T05:43:42.347Z,14.41
2018-05-12T05:46:09.834Z,14.48
2018-05-12T05:48:37.348Z,14.55
2018-05-12T05:51:04.847Z,14.62
2018-05-12T05:53:32.322Z,14.67
2018-05-12T05:55:59.826Z,14.74
2018-05-12T05:58:27.377Z,14.79
2018-05-12T06:00:54.833Z,14.86
2018-05-12T06:03:22.322Z,14.93
2018-05-12T06:05:49.838Z,15.02
2018-05-12T06:08:17.298Z,15.10
2018-05-12T06:10:44.828Z,15.17
2018-05-12T06:13:12.362Z,15.24
2018-05-12T06:15:39.840Z,15.36
2018-05-12T06:18:07.355Z,15.48
2018-05-12T06:20:34.868Z,15.57
2018-05-12T06:23:02.414Z,15.69
2018-05-12T06:25:29.862Z,15.79
2018-05-12T06:27:57.468Z,15.86
2018-05-12T06:30:24.927Z,15.93
2018-05-12T06:32:52.412Z,15.99
2018-05-12T06:35:19.947Z,16.05
2018-05-12T06:37:47.429Z,16.15
2018-05-12T06:40:14.929Z,16.25
2018-05-12T06:42:42.410Z,16.30
2018-05-12T06:45:09.905Z,16.36
2018-05-12T06:47:37.392Z,16.43
2018-05-12T06:50:05.068Z,16.49
2018-05-12T06:52:32.573Z,16.61
2018-05-12T06:55:00.062Z,16.69
2018-05-12T06:57:27.553Z,16.71
2018-05-12T06:59:55.045Z,16.73
2018-05-12T07:02:22.582Z,16.80
2018-05-12T07:04:50.075Z,16.90
2018-05-12T07:07:17.577Z,16.98
2018-05-12T07:09:45.067Z,17.06
2018-05-12T07:12:12.587Z,17.15
2018-05-12T07:14:40.089Z,17.26
2018-05-12T07:17:07.563Z,17.37
2018-05-12T07:19:35.040Z,17.48
2018-05-12T07:22:02.566Z,17.60
2018-05-12T07:24:30.045Z,17.70
2018-05-12T07:26:57.554Z,17.78
2018-05-12T07:29:25.062Z,17.86
2018-05-12T07:31:52.559Z,17.94
2018-05-12T07:34:20.075Z,18.03
2018-05-12T07:36:47.570Z,18.09
2018-05-12T07:39:15.062Z,18.22
2018-05-12T07:41:42.565Z,18.32
2018-05-12T07:44:10.038Z,18.42
2018-05-12T07:46:37.542Z,18.51
2018-05-12T07:49:05.017Z,18.59
2018-05-12T07:51:32.520Z,18.68
2018-05-12T07:54:00.002Z,18.81
2018-05-12T07:56:27.484Z,18.89
2018-05-12T07:58:54.968Z,18.97
2018-05-12T08:01:22.498Z,19.03
2018-05-12T08:03:49.957Z,19.10
2018-05-12T08:06:17.474Z,19.13
2018-05-12T08:08:45.004Z,19.22
2018-05-12T08:11:13.106Z,19.34
2018-05-12T08:13:40.605Z,19.45
2018-05-12T08:16:08.078Z,19.52
2018-05-12T08:18:35.574Z,19.61
2018-05-12T08:21:03.052Z,19.69
2018-05-12T08:23:30.538Z,19.74
2018-05-12T08:25:58.037Z,19.83
2018-05-12T08:28:25.542Z,19.89
2018-05-12T08:30:53.035Z,19.95
2018-05-12T08:33:20.502Z,20.05
2018-05-12T08:35:48.019Z,20.11
2018-05-12T08:38:15.480Z,20.15
2018-05-12T08:40:43.011Z,20.19
2018-05-12T08:43:10.492Z,20.31
2018-05-12T08:45:38.172Z,20.41
2018-05-12T08:48:05.725Z,20.50
2018-05-12T08:50:33.240Z,20.60
2018-05-12T08:53:00.710Z,20.60
2018-05-12T08:55:28.514Z,20.64
2018-05-12T08:57:56.019Z,20.77
2018-05-12T09:00:23.502Z,20.86
2018-05-12T09:02:51.008Z,20.86
2018-05-12T09:05:18.497Z,20.92
2018-05-12T09:07:46.002Z,20.94
2018-05-12T09:10:13.582Z,21.05
2018-05-12T09:12:41.093Z,21.18
2018-05-12T09:15:08.567Z,21.27
2018-05-12T09:17:36.053Z,21.41
2018-05-12T09:20:03.525Z,21.43
2018-05-12T09:22:31.041Z,21.36
2018-05-12T09:24:58.529Z,21.57
2018-05-12T09:27:26.030Z,21.72
2018-05-12T09:29:53.522Z,21.76
2018-05-12T09:32:21.020Z,21.74
2018-05-12T09:34:48.521Z,21.65
2018-05-12T09:37:16.043Z,21.76
2018-05-12T09:39:43.493Z,21.75
2018-05-12T09:42:11.019Z,21.62
2018-05-12T09:44:38.512Z,21.72
2018-05-12T09:47:05.998Z,21.89
2018-05-12T09:49:33.477Z,21.97
2018-05-12T09:52:00.971Z,22.12
2018-05-12T09:54:28.443Z,22.25
2018-05-12T09:56:55.933Z,22.38
2018-05-12T09:59:23.426Z,22.34
2018-05-12T10:01:50.912Z,22.41
2018-05-12T10:04:18.375Z,22.47
2018-05-12T10:06:45.863Z,22.53
2018-05-12T10:09:13.389Z,22.64
2018-05-12T10:11:40.897Z,22.63
2018-05-12T10:14:08.372Z,22.72
2018-05-12T10:16:35.875Z,22.89
2018-05-12T10:19:03.373Z,23.04
2018-05-12T10:21:30.882Z,23.24
2018-05-12T10:23:58.409Z,23.43
2018-05-12T10:26:25.893Z,23.49
2018-05-12T10:28:53.388Z,23.55
2018-05-12T10:31:20.911Z,23.44
2018-05-12T10:33:48.390Z,23.51
2018-05-12T10:36:15.853Z,23.70
2018-05-12T10:38:43.347Z,23.70
2018-05-12T10:41:10.822Z,23.60
2018-05-12T10:43:38.314Z,23.50
2018-05-12T10:46:05.820Z,23.25
2018-05-12T10:48:33.306Z,23.25
2018-05-12T10:51:00.802Z,23.54
2018-05-12T10:53:28.277Z,23.73
2018-05-12T10:55:55.767Z,23.98
2018-05-12T10:58:23.229Z,24.01
2018-05-12T11:00:50.753Z,24.04
2018-05-12T11:03:18.221Z,24.08
2018-05-12T11:05:45.692Z,24.23
2018-05-12T11:08:13.209Z,24.31
2018-05-12T11:10:40.679Z,24.36
2018-05-12T11:13:08.170Z,24.49
2018-05-12T11:15:35.630Z,24.56
2018-05-12T11:18:03.120Z,24.48
2018-05-12T11:20:30.589Z,24.60
2018-05-12T11:22:58.084Z,24.62
2018-05-12T11:25:25.596Z,24.67
2018-05-12T11:27:53.117Z,24.74
2018-05-12T11:30:20.617Z,24.85
2018-05-12T11:32:48.091Z,24.99
2018-05-12T11:35:15.584Z,25.03
2018-05-12T11:37:43.067Z,25.00
2018-05-12T11:40:10.594Z,25.09
2018-05-12T11:42:38.083Z,25.33
2018-05-12T11:45:05.565Z,25.27
2018-05-12T11:47:33.069Z,25.21
2018-05-12T11:50:00.546Z,25.32
2018-05-12T11:52:28.024Z,25.37
2018-05-12T11:54:55.559Z,25.36
2018-05-12T11:57:23.050Z,25.44
2018-05-12T11:59:51.350Z,25.46
2018-05-12T12:02:18.840Z,25.46
2018-05-12T12:04:46.305Z,25.52
2018-05-12T12:07:13.777Z,25.52
2018-05-12T12:09:41.230Z,25.65
2018-05-12T12:12:08.713Z,25.74
2018-05-12T12:14:36.180Z,25.69
2018-05-12T12:17:03.700Z,25.67
2018-05-12T12:19:31.164Z,25.48
2018-05-12T12:21:58.629Z,25.32
2018-05-12T12:24:26.124Z,25.53
2018-05-12T12:26:53.789Z,25.67
2018-05-12T12:29:21.288Z,25.85
2018-05-12T12:31:48.931Z,25.91
2018-05-12T12:34:16.439Z,25.98
2018-05-12T12:36:43.918Z,25.97
2018-05-12T12:39:12.120Z,25.98
2018-05-12T12:41:39.626Z,26.11
2018-05-12T12:44:07.106Z,26.19
2018-05-12T12:46:34.600Z,26.34
2018-05-12T12:51:35.929Z,26.32
2018-05-12T12:54:03.557Z,26.28
2018-05-12T12:56:31.304Z,26.29
2018-05-12T12:58:59.032Z,26.54
2018-05-12T13:01:26.710Z,26.67
2018-05-12T13:03:54.695Z,26.71
2018-05-12T13:06:22.279Z,26.81
2018-05-12T13:08:49.944Z,26.80
2018-05-12T13:11:17.425Z,26.69
2018-05-12T13:13:44.922Z,26.57
2018-05-12T13:16:12.400Z,26.77
2018-05-12T13:18:40.024Z,27.03
2018-05-12T13:21:07.519Z,27.19
2018-05-12T13:23:34.978Z,27.40
2018-05-12T13:26:02.483Z,27.33
2018-05-12T13:28:29.953Z,27.27
2018-05-12T13:30:57.487Z,27.29
2018-05-12T13:33:24.950Z,27.52
2018-05-12T13:35:52.965Z,27.63
2018-05-12T13:38:20.428Z,28.01
2018-05-12T13:40:47.909Z,28.09
2018-05-12T13:43:15.381Z,28.01
2018-05-12T13:45:42.876Z,28.12
2018-05-12T13:48:10.350Z,28.21
2018-05-12T13:50:37.848Z,28.28
2018-05-12T13:53:05.329Z,28.28
2018-05-12T13:55:32.791Z,28.51
2018-05-12T13:58:00.289Z,28.58
2018-05-12T14:00:27.759Z,28.69
2018-05-12T14:02:55.260Z,28.74
2018-05-12T14:05:22.745Z,28.93
2018-05-12T14:07:50.276Z,29.02
2018-05-12T14:10:17.786Z,29.48
2018-05-12T14:12:45.271Z,29.10
2018-05-12T14:15:12.761Z,28.54
2018-05-12T14:17:40.222Z,28.03
2018-05-12T14:20:07.721Z,27.58
2018-05-12T14:22:35.211Z,27.32
2018-05-12T14:25:02.690Z,26.99
2018-05-12T14:27:30.151Z,26.87
2018-05-12T14:29:57.885Z,27.91
2018-05-12T14:32:26.936Z,29.04
2018-05-12T14:34:54.387Z,29.91
2018-05-12T14:37:21.888Z,30.70
2018-05-12T14:39:49.368Z,31.06
2018-05-12T14:42:16.876Z,31.59
2018-05-12T14:44:44.512Z,31.82
2018-05-12T14:47:12.023Z,31.65
2018-05-12T14:49:39.502Z,31.90
2018-05-12T14:52:07.163Z,31.36
2018-05-12T14:54:34.809Z,31.43
2018-05-12T14:57:02.325Z,30.37
2018-05-12T14:59:29.962Z,29.22
2018-05-12T15:01:57.539Z,28.48
2018-05-12T15:04:25.046Z,28.17
2018-05-12T15:06:52.564Z,28.94
2018-05-12T15:09:20.350Z,29.65
2018-05-12T15:11:48.119Z,29.87
2018-05-12T15:14:15.641Z,30.13
2018-05-12T15:16:43.269Z,30.45
2018-05-12T15:19:10.741Z,30.53
2018-05-12T15:21:38.477Z,30.71
2018-05-12T15:24:06.173Z,31.13
2018-05-12T15:26:33.977Z,31.23
2018-05-12T15:29:01.680Z,30.80
2018-05-12T15:31:29.380Z,30.67
2018-05-12T15:33:56.882Z,30.45
2018-05-12T15:36:24.609Z,30.31
2018-05-12T15:38:52.176Z,30.44
2018-05-12T15:41:19.707Z,30.08
2018-05-12T15:43:47.233Z,29.68
2018-05-12T15:46:14.710Z,29.89
2018-05-12T15:48:42.207Z,29.99
2018-05-12T15:51:09.948Z,30.11
2018-05-12T15:53:37.709Z,30.25
2018-05-12T15:56:05.413Z,30.48
2018-05-12T15:58:33.235Z,30.03
2018-05-12T16:01:00.739Z,29.48
2018-05-12T16:03:28.221Z,29.34
2018-05-12T16:05:55.989Z,29.24
2018-05-12T16:08:23.698Z,29.26
2018-05-12T16:10:51.185Z,29.28
2018-05-12T16:13:18.672Z,29.01
2018-05-12T16:15:46.197Z,28.54
2018-05-12T16:18:13.903Z,28.00
2018-05-12T16:20:41.703Z,27.71
2018-05-12T16:23:09.381Z,27.53
2018-05-12T16:25:37.308Z,27.27
2018-05-12T16:28:04.798Z,27.11
2018-05-12T16:30:32.275Z,27.05
2018-05-12T16:32:59.851Z,26.93
2018-05-12T16:35:27.352Z,26.79
2018-05-12T16:37:55.031Z,26.68
2018-05-12T16:40:22.778Z,26.74
2018-05-12T16:42:50.578Z,26.62
2018-05-12T16:45:18.079Z,26.49
2018-05-12T16:47:45.609Z,26.33
2018-05-12T16:50:13.145Z,26.17
2018-05-12T16:52:40.620Z,26.12
2018-05-12T16:55:08.150Z,26.06
2018-05-12T16:57:35.623Z,25.99
2018-05-12T17:00:03.155Z,26.00
2018-05-12T17:02:30.636Z,25.94
2018-05-12T17:04:58.341Z,25.87
2018-05-12T17:07:26.155Z,25.73
2018-05-12T17:09:53.671Z,25.59
2018-05-12T17:12:21.312Z,25.43
2018-05-12T17:14:49.013Z,25.30
2018-05-12T17:17:16.509Z,25.26
2018-05-12T17:19:43.993Z,25.12
2018-05-12T17:22:11.581Z,25.04
2018-05-12T17:24:39.044Z,24.93
2018-05-12T17:27:06.773Z,24.81
2018-05-12T17:29:34.671Z,24.70
2018-05-12T17:32:02.429Z,24.68
2018-05-12T17:34:30.320Z,24.59
2018-05-12T17:36:57.782Z,24.49
2018-05-12T17:39:25.482Z,24.42
2018-05-12T17:41:53.001Z,24.27
2018-05-12T17:44:20.861Z,24.15
2018-05-12T17:46:48.353Z,24.06
2018-05-12T17:49:15.835Z,23.99
2018-05-12T17:51:43.469Z,23.91
2018-05-12T17:54:11.265Z,23.82
2018-05-12T17:56:40.203Z,23.79
2018-05-12T17:59:08.013Z,23.66
2018-05-12T18:01:35.791Z,23.60
2018-05-12T18:04:03.277Z,23.51
2018-05-12T18:06:30.749Z,23.47
2018-05-12T18:08:58.240Z,23.37
2018-05-12T18:11:26.108Z,23.29
2018-05-12T18:13:53.587Z,23.22
2018-05-12T18:16:21.306Z,23.13
2018-05-12T18:18:49.023Z,23.09
2018-05-12T18:21:16.534Z,23.00
2018-05-12T18:23:44.206Z,22.96
2018-05-12T18:26:11.901Z,22.89
2018-05-12T18:28:39.373Z,22.79
2018-05-12T18:31:07.309Z,22.76
2018-05-12T18:33:34.840Z,22.72
2018-05-12T18:36:02.374Z,22.66
2018-05-12T18:38:29.870Z,22.61
2018-05-12T18:40:57.329Z,22.55
2018-05-12T18:43:24.827Z,22.50
2018-05-12T18:45:52.661Z,22.45
2018-05-12T18:48:20.217Z,22.38
2018-05-12T18:50:47.731Z,22.31
2018-05-12T18:53:15.289Z,22.26
2018-05-12T18:55:43.046Z,22.22
2018-05-12T18:58:10.850Z,22.17
2018-05-12T19:00:38.328Z,22.09
2018-05-12T19:03:06.059Z,22.03
2018-05-12T19:05:33.786Z,21.96
2018-05-12T19:08:01.399Z,21.89
2018-05-12T19:10:29.922Z,21.83
2018-05-12T19:12:57.391Z,21.78
2018-05-12T19:15:25.242Z,21.72
2018-05-12T19:17:52.952Z,21.64
2018-05-12T19:20:20.760Z,21.58
2018-05-12T19:22:48.576Z,21.51
2018-05-12T19:25:16.178Z,21.45
2018-05-12T19:27:43.664Z,21.40
2018-05-12T19:30:11.575Z,21.35
2018-05-12T19:32:39.190Z,21.30
2018-05-12T19:35:06.619Z,21.24
2018-05-12T19:37:34.105Z,21.19
2018-05-12T19:40:02.032Z,21.13
2018-05-12T19:42:29.532Z,21.06
2018-05-12T19:44:57.019Z,20.99
2018-05-12T19:47:24.584Z,20.93
2018-05-12T19:49:52.100Z,20.86
2018-05-12T19:52:20.058Z,20.80
2018-05-12T19:54:47.594Z,20.74
2018-05-12T19:57:15.065Z,20.66
2018-05-12T19:59:42.563Z,20.62
2018-05-12T20:02:10.271Z,20.58
2018-05-12T20:04:37.758Z,20.53
2018-05-12T20:07:05.237Z,20.48
2018-05-12T20:09:32.739Z,20.43
2018-05-12T20:12:00.219Z,20.37
2018-05-12T20:14:28.401Z,20.33
2018-05-12T20:16:56.473Z,20.27
2018-05-12T20:19:24.002Z,20.21
2018-05-12T20:21:51.512Z,20.14
2018-05-12T20:24:19.652Z,20.07
2018-05-12T20:26:47.358Z,20.03
2018-05-12T20:29:14.851Z,19.97
2018-05-12T20:31:42.369Z,19.93
2018-05-12T20:34:09.885Z,19.89
2018-05-12T20:36:37.587Z,19.86
2018-05-12T20:39:05.328Z,19.83
2018-05-12T20:41:33.286Z,19.80
2018-05-12T20:44:00.762Z,19.75
2018-05-12T20:46:28.309Z,19.70
2018-05-12T20:48:55.974Z,19.63
2018-05-12T20:51:23.939Z,19.58
2018-05-12T20:53:51.884Z,19.54
2018-05-12T20:56:19.406Z,19.50
2018-05-12T20:58:47.210Z,19.47
2018-05-12T21:01:14.708Z,19.45
2018-05-12T21:03:42.209Z,19.43
2018-05-12T21:06:09.690Z,19.41
2018-05-12T21:08:37.209Z,19.39
2018-05-12T21:11:04.898Z,19.36
2018-05-12T21:13:32.685Z,19.34
2018-05-12T21:16:00.199Z,19.34
2018-05-12T21:18:27.664Z,19.33
2018-05-12T21:20:55.499Z,19.30
2018-05-12T21:23:23.211Z,19.28
2018-05-12T21:25:50.711Z,19.24
2018-05-12T21:28:18.429Z,19.20
2018-05-12T21:30:46.058Z,19.16
2018-05-12T21:33:13.557Z,19.12
2018-05-12T21:35:41.252Z,19.07
2018-05-12T21:38:08.848Z,19.02
2018-05-12T21:40:36.610Z,18.96
2018-05-12T21:43:04.355Z,18.90
2018-05-12T21:45:31.849Z,18.86
2018-05-12T21:47:59.358Z,18.82
2018-05-12T21:50:27.020Z,18.75
2018-05-12T21:52:54.518Z,18.70
2018-05-12T21:55:22.001Z,18.63
2018-05-12T21:57:49.754Z,18.58
2018-05-12T22:00:17.227Z,18.52
2018-05-12T22:02:44.705Z,18.50
2018-05-12T22:05:12.207Z,18.48
2018-05-12T22:07:39.742Z,18.44
2018-05-12T22:10:07.250Z,18.41
2018-05-12T22:12:34.714Z,18.35
2018-05-12T22:15:02.186Z,18.31
2018-05-12T22:17:29.700Z,18.26
2018-05-12T22:19:57.175Z,18.22
2018-05-12T22:22:24.632Z,18.19
2018-05-12T22:24:52.116Z,18.17
2018-05-12T22:27:19.590Z,18.14
2018-05-12T22:29:47.076Z,18.12
2018-05-12T22:32:14.529Z,18.10
2018-05-12T22:34:42.032Z,18.10
2018-05-12T22:37:09.489Z,18.09
2018-05-12T22:39:37.050Z,18.10
2018-05-12T22:42:04.506Z,18.09
2018-05-12T22:44:31.992Z,18.05
2018-05-12T22:46:59.475Z,18.02
2018-05-12T22:49:26.956Z,17.98
2018-05-12T22:51:54.443Z,17.94
2018-05-12T22:54:22.122Z,17.89
2018-05-12T22:56:49.639Z,17.86
2018-05-12T22:59:17.121Z,17.84
2018-05-12T23:01:44.601Z,17.84
2018-05-12T23:04:12.062Z,17.80
2018-05-12T23:06:39.562Z,17.77
2018-05-12T23:09:07.085Z,17.74
2018-05-12T23:11:34.600Z,17.72
2018-05-12T23:14:02.077Z,17.69
2018-05-12T23:16:29.561Z,17.67
2018-05-12T23:18:57.033Z,17.60
2018-05-12T23:21:24.523Z,17.57
2018-05-12T23:23:52.013Z,17.56
2018-05-12T23:26:19.502Z,17.55
2018-05-12T23:28:46.986Z,17.53
2018-05-12T23:31:14.461Z,17.50
2018-05-12T23:33:41.963Z,17.49
2018-05-12T23:36:09.453Z,17.47
2018-05-12T23:38:36.922Z,17.46
2018-05-12T23:41:04.417Z,17.42
2018-05-12T23:43:31.892Z,17.38
2018-05-12T23:45:59.375Z,17.37
2018-05-12T23:48:27.030Z,17.36
2018-05-12T23:50:54.520Z,17.37
2018-05-12T23:53:21.990Z,17.38
2018-05-12T23:55:49.490Z,17.36
2018-05-12T23:58:17.049Z,17.31
